Time;durP1;ratioP1;P1;durP2;ratioP2;P2;SDS_P1;SDS_P2;PMS_P1;PMS_P2;Temp;Humidity;BMP_temperature;BMP_pressure;BME280_temperature;BME280_humidity;BME280_pressure;Samples;Min_cycle;Max_cycle;Signal;HPM_P1;HPM_P2
2023/04/29 00:01:30;;;;;;;7.77;5.97;;;;;;;12.05;100.00;97746.63;4912902;28;20306;-83
2023/04/29 00:03:57;;;;;;;9.20;5.90;;;;;;;12.04;100.00;97742.31;4912830;28;20239;-83
2023/04/29 00:06:23;;;;;;;7.97;5.90;;;;;;;12.03;100.00;97743.25;4912933;29;20217;-83
2023/04/29 00:08:51;;;;;;;7.10;5.80;;;;;;;12.07;100.00;97740.25;4912809;28;20697;-83
2023/04/29 00:11:17;;;;;;;8.37;5.83;;;;;;;12.04;100.00;97737.81;4912433;28;20303;-83
2023/04/29 00:13:45;;;;;;;8.33;5.40;;;;;;;12.02;100.00;97736.28;4913191;28;20236;-83
2023/04/29 00:16:12;;;;;;;5.60;4.93;;;;;;;12.02;100.00;97741.56;4912360;28;20683;-83
2023/04/29 00:18:39;;;;;;;7.80;5.60;;;;;;;12.00;100.00;97732.91;4912334;28;20724;-83
2023/04/29 00:21:05;;;;;;;6.80;4.87;;;;;;;11.96;100.00;97742.06;4912175;28;20212;-83
2023/04/29 00:23:32;;;;;;;7.63;5.40;;;;;;;11.92;100.00;97740.66;4912230;28;20239;-82
2023/04/29 00:25:59;;;;;;;7.70;5.90;;;;;;;11.91;100.00;97744.22;4912306;28;20217;-82
2023/04/29 00:28:25;;;;;;;6.90;5.30;;;;;;;11.87;100.00;97743.63;4912516;29;20239;-82
2023/04/29 00:30:56;;;;;;;9.27;5.07;;;;;;;11.84;100.00;97743.03;4911857;28;20221;-82
2023/04/29 00:33:23;;;;;;;8.37;5.77;;;;;;;11.80;100.00;97746.94;4912284;28;20296;-83
2023/04/29 00:35:50;;;;;;;7.83;6.03;;;;;;;11.82;100.00;97739.69;4913191;28;20219;-82
2023/04/29 00:38:16;;;;;;;8.10;5.83;;;;;;;11.82;100.00;97747.63;4915357;28;20216;-82
2023/04/29 00:40:43;;;;;;;6.63;5.97;;;;;;;11.80;100.00;97731.88;4915338;28;20674;-82
2023/04/29 00:43:13;;;;;;;10.10;6.97;;;;;;;11.91;100.00;97744.22;4915327;28;20405;-83
2023/04/29 00:45:39;;;;;;;9.77;7.03;;;;;;;11.93;100.00;97739.69;4915539;28;20227;-82
2023/04/29 00:48:07;;;;;;;9.50;6.93;;;;;;;11.95;100.00;97743.03;4915501;28;20224;-82
2023/04/29 00:50:35;;;;;;;9.00;6.97;;;;;;;12.01;100.00;97745.19;4915017;28;20267;-82
2023/04/29 00:53:05;;;;;;;8.73;7.03;;;;;;;12.03;100.00;97740.59;4915164;28;20236;-84
2023/04/29 00:55:32;;;;;;;7.50;6.70;;;;;;;12.06;100.00;97743.00;4915408;28;20215;-82
2023/04/29 00:57:59;;;;;;;8.20;6.77;;;;;;;11.97;100.00;97754.34;4915558;28;20217;-82
2023/04/29 01:00:26;;;;;;;9.63;6.73;;;;;;;11.91;100.00;97754.81;4915040;29;20557;-82
2023/04/29 01:02:54;;;;;;;9.97;7.60;;;;;;;11.93;100.00;97758.22;4915473;28;20224;-83
2023/04/29 01:05:23;;;;;;;7.70;6.70;;;;;;;12.06;100.00;97761.56;4915017;28;20339;-82
2023/04/29 01:08:01;;;;;;;9.87;7.10;;;;;;;12.03;100.00;97753.84;4914922;29;20208;-82
2023/04/29 01:10:31;;;;;;;8.60;6.77;;;;;;;11.93;100.00;97758.22;4915315;28;20203;-84
2023/04/29 01:13:06;;;;;;;7.77;6.30;;;;;;;11.86;100.00;97764.97;4915269;28;20267;-84
2023/04/29 01:15:39;;;;;;;8.53;6.23;;;;;;;11.80;100.00;97768.09;4915238;28;20222;-83
2023/04/29 01:18:12;;;;;;;7.57;5.97;;;;;;;11.72;100.00;97775.78;4915584;29;20216;-82
2023/04/29 01:20:43;;;;;;;7.53;5.53;;;;;;;11.65;100.00;97778.09;4915202;29;20215;-82
2023/04/29 01:23:10;;;;;;;7.57;5.90;;;;;;;11.55;100.00;97789.50;4915736;28;20352;-83
2023/04/29 01:25:38;;;;;;;6.73;5.80;;;;;;;11.41;100.00;97784.44;4916000;28;20246;-84
2023/04/29 01:28:14;;;;;;;7.27;5.70;;;;;;;11.31;100.00;97780.84;4922402;28;20217;-82
2023/04/29 01:30:53;;;;;;;6.40;5.53;;;;;;;11.29;100.00;97782.75;4935200;28;20228;-82
2023/04/29 01:33:29;;;;;;;6.87;5.77;;;;;;;11.23;100.00;97783.22;4935039;28;20257;-82
2023/04/29 01:36:08;;;;;;;7.33;5.50;;;;;;;11.16;100.00;97782.00;4916068;28;20210;-83
2023/04/29 01:38:42;;;;;;;6.40;5.50;;;;;;;11.07;100.00;97791.47;4916336;29;20204;-83
2023/04/29 01:41:15;;;;;;;7.30;5.27;;;;;;;11.02;100.00;97790.16;4915338;29;20212;-83
2023/04/29 01:43:43;;;;;;;5.63;4.97;;;;;;;10.97;100.00;97787.03;4915338;29;20248;-83
2023/04/29 01:46:11;;;;;;;6.77;5.70;;;;;;;10.92;100.00;97783.88;4915312;28;20599;-83
2023/04/29 01:48:37;;;;;;;7.20;5.70;;;;;;;10.89;100.00;97784.13;4915674;28;20306;-82
2023/04/29 01:51:05;;;;;;;5.97;5.37;;;;;;;10.86;100.00;97779.06;4914895;28;20230;-83
2023/04/29 01:53:34;;;;;;;6.07;5.37;;;;;;;10.87;100.00;97783.38;4915494;28;20337;-83
2023/04/29 01:56:02;;;;;;;8.07;5.93;;;;;;;10.82;100.00;97783.72;4915701;28;20217;-82
2023/04/29 01:58:30;;;;;;;7.37;6.30;;;;;;;10.80;100.00;97776.88;4915229;28;20217;-82
2023/04/29 02:00:56;;;;;;;7.07;6.27;;;;;;;10.81;100.00;97778.56;4915125;28;20217;-83
2023/04/29 02:03:23;;;;;;;6.70;6.00;;;;;;;10.77;100.00;97782.41;4914920;28;20243;-78
2023/04/29 02:05:50;;;;;;;8.87;6.07;;;;;;;10.71;100.00;97780.22;4915232;28;20239;-83
2023/04/29 02:08:16;;;;;;;8.07;6.17;;;;;;;10.71;100.00;97782.88;4915495;28;20673;-83
2023/04/29 02:10:52;;;;;;;7.50;6.13;;;;;;;10.69;100.00;97782.13;4914958;28;20590;-83
2023/04/29 02:13:18;;;;;;;8.00;6.27;;;;;;;10.66;100.00;97782.38;4914867;28;20282;-82
2023/04/29 02:15:46;;;;;;;9.53;6.50;;;;;;;10.63;100.00;97783.44;4915411;28;20588;-83
2023/04/29 02:18:13;;;;;;;7.80;6.70;;;;;;;10.61;100.00;97781.84;4914783;28;20219;-83
2023/04/29 02:20:39;;;;;;;10.97;7.67;;;;;;;10.61;100.00;97781.84;4915150;28;20307;-82
2023/04/29 02:23:06;;;;;;;9.10;7.70;;;;;;;10.60;100.00;97788.09;4915053;28;20230;-82
2023/04/29 02:25:32;;;;;;;10.03;7.73;;;;;;;10.57;100.00;97797.09;4914841;28;20590;-82
2023/04/29 02:28:01;;;;;;;9.67;6.73;;;;;;;10.46;100.00;97780.38;4914650;28;20236;-82
2023/04/29 02:30:30;;;;;;;7.37;6.37;;;;;;;10.41;100.00;97790.44;4914569;28;20220;-82
2023/04/29 02:32:58;;;;;;;7.53;6.47;;;;;;;10.36;100.00;97788.13;4914716;28;20240;-82
2023/04/29 02:35:24;;;;;;;8.50;6.47;;;;;;;10.35;100.00;97794.34;4915205;28;20213;-82
2023/04/29 02:37:51;;;;;;;7.40;6.40;;;;;;;10.35;100.00;97793.53;4914854;28;20303;-82
2023/04/29 02:40:18;;;;;;;9.27;7.83;;;;;;;10.41;100.00;97782.50;4914225;28;20212;-82
2023/04/29 02:42:44;;;;;;;9.13;7.63;;;;;;;10.41;100.00;97787.78;4914436;28;20359;-82
2023/04/29 02:45:11;;;;;;;10.50;8.13;;;;;;;10.41;100.00;97790.44;4986898;22;20243;-77
2023/04/29 02:47:38;;;;;;;11.37;7.97;;;;;;;10.42;100.00;97786.81;4990823;28;20209;-77
2023/04/29 02:50:07;;;;;;;10.20;8.00;;;;;;;10.37;100.00;97789.81;4990301;28;20208;-77
2023/04/29 02:52:33;;;;;;;8.27;7.30;;;;;;;10.33;100.00;97784.88;4990276;28;20683;-77
2023/04/29 02:55:00;;;;;;;9.73;7.83;;;;;;;10.34;100.00;97784.75;4990393;28;20224;-77
2023/04/29 02:57:28;;;;;;;10.60;7.83;;;;;;;10.34;100.00;97791.84;4990269;28;20273;-77
2023/04/29 02:59:54;;;;;;;9.37;7.67;;;;;;;10.33;100.00;97792.81;4989500;28;20211;-77
2023/04/29 03:02:21;;;;;;;8.80;7.30;;;;;;;10.31;100.00;97789.41;4990122;28;20222;-77
2023/04/29 03:04:49;;;;;;;7.83;6.70;;;;;;;10.26;100.00;97794.19;4990049;28;20242;-77
2023/04/29 03:07:17;;;;;;;10.53;8.03;;;;;;;10.28;100.00;97794.94;4990287;28;20569;-77
2023/04/29 03:09:44;;;;;;;9.07;7.27;;;;;;;10.23;100.00;97790.00;4989918;28;20211;-77
2023/04/29 03:12:10;;;;;;;8.90;7.17;;;;;;;10.22;100.00;97792.75;4990075;28;20220;-77
2023/04/29 03:14:39;;;;;;;7.97;6.20;;;;;;;10.15;100.00;97794.97;4989882;28;20232;-76
2023/04/29 03:17:06;;;;;;;7.43;6.40;;;;;;;10.15;100.00;97791.50;4990197;28;20214;-76
2023/04/29 03:19:32;;;;;;;7.30;5.97;;;;;;;10.12;100.00;97795.22;4989820;28;20211;-76
2023/04/29 03:21:59;;;;;;;9.13;6.80;;;;;;;10.12;100.00;97797.00;4989854;28;20208;-76
2023/04/29 03:24:28;;;;;;;8.50;6.33;;;;;;;10.12;100.00;97797.00;4989759;28;20237;-76
2023/04/29 03:26:54;;;;;;;8.50;6.73;;;;;;;10.11;100.00;97804.09;4990000;28;20293;-76
2023/04/29 03:29:21;;;;;;;7.80;6.03;;;;;;;10.09;100.00;97797.22;4989424;28;20242;-76
2023/04/29 03:31:47;;;;;;;8.33;6.93;;;;;;;10.06;100.00;97802.72;4989892;28;20218;-76
2023/04/29 03:34:14;;;;;;;8.07;6.13;;;;;;;10.03;100.00;97795.00;4989667;28;20238;-76
2023/04/29 03:36:40;;;;;;;7.47;6.00;;;;;;;10.01;100.00;97796.88;4989701;28;20289;-77
2023/04/29 03:39:07;;;;;;;7.30;6.43;;;;;;;9.99;100.00;97793.53;4989514;28;20236;-76
2023/04/29 03:41:35;;;;;;;6.47;5.73;;;;;;;9.94;100.00;97790.38;4990046;28;20215;-76
2023/04/29 03:44:02;;;;;;;6.30;5.30;;;;;;;9.88;100.00;97783.75;4989539;28;20240;-76
2023/04/29 03:46:29;;;;;;;6.37;5.67;;;;;;;9.86;100.00;97792.72;4989466;28;20230;-77
2023/04/29 03:48:56;;;;;;;8.07;6.00;;;;;;;9.82;100.00;97799.16;4989646;28;20210;-76
2023/04/29 03:51:23;;;;;;;7.77;5.80;;;;;;;9.79;100.00;97796.75;4989379;28;20225;-78
2023/04/29 03:53:53;;;;;;;6.07;5.33;;;;;;;9.77;100.00;97799.50;4989394;28;20234;-77
2023/04/29 03:56:19;;;;;;;6.30;5.17;;;;;;;9.75;100.00;97797.91;4989334;28;20210;-77
2023/04/29 03:58:47;;;;;;;8.10;5.73;;;;;;;9.76;100.00;97794.31;4989432;28;20210;-77
2023/04/29 04:01:14;;;;;;;7.57;6.03;;;;;;;9.78;100.00;97798.53;4990287;28;20578;-78
2023/04/29 04:03:42;;;;;;;8.60;6.33;;;;;;;9.80;100.00;97803.72;4989496;28;20328;-77
2023/04/29 04:06:08;;;;;;;9.43;6.83;;;;;;;9.81;100.00;97805.41;4989467;28;20809;-77
2023/04/29 04:08:35;;;;;;;10.67;7.43;;;;;;;9.85;100.00;97804.25;4989352;28;20210;-77
2023/04/29 04:11:03;;;;;;;9.37;7.13;;;;;;;9.84;100.00;97805.19;4987717;28;20241;-77
2023/04/29 04:13:29;;;;;;;8.47;7.10;;;;;;;9.83;100.00;97806.13;4989367;28;20214;-77
2023/04/29 04:15:57;;;;;;;10.17;6.90;;;;;;;9.84;100.00;97810.47;4989259;28;20206;-77
2023/04/29 04:18:24;;;;;;;8.77;7.27;;;;;;;9.88;100.00;97814.56;4989196;28;20217;-77
2023/04/29 04:20:51;;;;;;;11.93;7.70;;;;;;;9.92;100.00;97816.88;4988780;28;20221;-77
2023/04/29 04:23:17;;;;;;;11.50;8.17;;;;;;;9.96;100.00;97809.56;4988956;28;20209;-77
2023/04/29 04:25:47;;;;;;;11.07;8.97;;;;;;;10.07;100.00;97814.97;4989033;28;20235;-77
2023/04/29 04:28:13;;;;;;;10.30;8.13;;;;;;;10.15;100.00;97820.56;4989208;28;20249;-77
2023/04/29 04:30:41;;;;;;;13.00;8.87;;;;;;;10.18;100.00;97829.09;4988829;28;20217;-77
2023/04/29 04:33:09;;;;;;;15.20;9.53;;;;;;;10.23;100.00;97831.41;4989072;28;20584;-77
2023/04/29 04:35:36;;;;;;;10.17;8.43;;;;;;;10.23;100.00;97832.25;4988874;28;20209;-77
2023/04/29 04:38:02;;;;;;;12.47;9.40;;;;;;;10.25;100.00;97840.91;4988747;28;20219;-77
2023/04/29 04:40:29;;;;;;;12.17;9.10;;;;;;;10.36;100.00;97837.47;4988610;28;20672;-77
2023/04/29 04:42:55;;;;;;;14.07;10.60;;;;;;;10.62;100.00;97839.03;4988969;28;20213;-77
2023/04/29 04:45:22;;;;;;;18.47;12.03;;;;;;;10.78;100.00;97834.31;4988566;28;20245;-77
2023/04/29 04:47:48;;;;;;;16.43;11.40;;;;;;;10.87;100.00;97829.19;4988750;28;20306;-77
2023/04/29 04:50:16;;;;;;;18.07;10.90;;;;;;;10.94;100.00;97845.44;4988467;28;20632;-77
2023/04/29 04:52:43;;;;;;;15.73;11.20;;;;;;;10.97;100.00;97842.53;4988734;28;20213;-77
2023/04/29 04:55:10;;;;;;;16.70;11.60;;;;;;;11.01;100.00;97846.66;4988805;28;20231;-77
2023/04/29 04:57:36;;;;;;;15.23;11.13;;;;;;;11.04;100.00;97843.75;4988882;28;20211;-77
2023/04/29 05:00:04;;;;;;;18.53;11.37;;;;;;;11.09;100.00;97854.84;4988417;28;20232;-77
2023/04/29 05:02:30;;;;;;;14.77;11.07;;;;;;;11.10;100.00;97848.59;4988610;28;20670;-77
2023/04/29 05:04:57;;;;;;;18.40;11.60;;;;;;;11.06;100.00;97852.44;4988506;28;20238;-77
2023/04/29 05:07:25;;;;;;;13.80;10.57;;;;;;;11.06;100.00;97855.09;4988725;28;20220;-77
2023/04/29 05:09:51;;;;;;;16.87;11.10;;;;;;;11.18;100.00;97860.28;4988362;28;20210;-77
2023/04/29 05:12:18;;;;;;;16.90;12.10;;;;;;;11.36;100.00;97860.66;4988896;28;20206;-77
2023/04/29 05:14:44;;;;;;;16.50;12.07;;;;;;;11.46;100.00;97859.88;4988479;28;20232;-77
2023/04/29 05:17:10;;;;;;;15.90;12.23;;;;;;;11.58;100.00;97869.53;4988509;28;20586;-77
2023/04/29 05:19:37;;;;;;;16.47;12.07;;;;;;;11.70;100.00;97867.75;4988070;28;20222;-77
2023/04/29 05:22:03;;;;;;;17.87;11.40;;;;;;;11.79;100.00;97869.69;4989942;28;20212;-77
2023/04/29 05:24:31;;;;;;;16.40;12.07;;;;;;;11.82;100.00;97872.06;4991662;28;20238;-77
2023/04/29 05:26:58;;;;;;;15.33;11.67;;;;;;;11.87;100.00;97880.50;4991707;28;20236;-78
2023/04/29 05:29:26;;;;;;;16.17;11.50;;;;;;;12.01;100.00;97885.56;4991606;28;20216;-77
2023/04/29 05:31:52;;;;;;;14.40;10.70;;;;;;;11.97;100.00;97892.06;4991719;28;20564;-77
2023/04/29 05:34:19;;;;;;;12.87;10.40;;;;;;;12.02;100.00;97889.88;4991567;28;20234;-77
2023/04/29 05:36:45;;;;;;;12.93;10.03;;;;;;;12.10;100.00;97898.09;4991467;28;20216;-77
2023/04/29 05:39:12;;;;;;;11.33;8.07;;;;;;;12.15;100.00;97906.50;4991162;28;20826;-77
2023/04/29 05:41:40;;;;;;;10.43;8.47;;;;;;;12.20;100.00;97904.34;4991530;28;20592;-77
2023/04/29 05:44:06;;;;;;;7.87;6.93;;;;;;;12.22;100.00;97915.69;4991189;28;20241;-77
2023/04/29 05:46:33;;;;;;;7.50;6.60;;;;;;;12.19;100.00;97919.41;4991502;28;20239;-77
2023/04/29 05:48:59;;;;;;;7.33;6.60;;;;;;;12.24;100.00;97913.75;4991241;28;20212;-76
2023/04/29 05:51:27;;;;;;;7.83;6.70;;;;;;;12.27;100.00;97921.44;4991031;28;20216;-77
2023/04/29 05:53:53;;;;;;;7.20;6.50;;;;;;;12.56;100.00;97923.47;4991371;28;20237;-76
2023/04/29 05:56:21;;;;;;;8.83;6.20;;;;;;;12.73;100.00;97922.09;4991308;28;20584;-76
2023/04/29 05:58:49;;;;;;;5.27;4.77;;;;;;;12.70;100.00;97924.97;4991258;28;20217;-77
2023/04/29 06:01:16;;;;;;;7.10;6.40;;;;;;;12.89;100.00;97941.13;4990815;28;20260;-77
2023/04/29 06:03:42;;;;;;;5.40;4.90;;;;;;;13.21;100.00;97942.81;4991214;28;20267;-76
2023/04/29 06:06:10;;;;;;;5.83;4.33;;;;;;;13.25;100.00;97954.88;4991183;28;20244;-76
2023/04/29 06:08:36;;;;;;;5.87;4.73;;;;;;;12.96;100.00;97961.72;4991169;28;20632;-77
2023/04/29 06:11:04;;;;;;;6.10;4.37;;;;;;;12.72;100.00;97976.91;4990796;28;20213;-76
2023/04/29 06:13:32;;;;;;;5.90;4.73;;;;;;;12.64;100.00;97979.34;4991092;28;20736;-77
2023/04/29 06:16:00;;;;;;;6.23;5.20;;;;;;;13.20;100.00;97977.47;4990894;28;20205;-77
2023/04/29 06:18:26;;;;;;;4.63;4.23;;;;;;;13.73;100.00;97981.78;4991188;28;20224;-78
2023/04/29 06:20:53;;;;;;;4.63;4.23;;;;;;;13.82;100.00;97986.34;4990707;28;20432;-75
2023/04/29 06:23:19;;;;;;;4.90;4.00;;;;;;;13.66;100.00;97985.94;4990883;28;20218;-75
2023/04/29 06:25:46;;;;;;;5.37;4.80;;;;;;;13.63;100.00;98002.16;4990842;28;20245;-77
2023/04/29 06:28:12;;;;;;;4.70;4.30;;;;;;;13.58;100.00;98009.66;4990771;28;20217;-76
2023/04/29 06:30:39;;;;;;;5.23;4.17;;;;;;;13.44;100.00;98015.25;4990668;28;20581;-80
2023/04/29 06:33:06;;;;;;;4.67;4.27;;;;;;;13.45;100.00;98016.94;5001535;28;20205;-81
2023/04/29 06:35:33;;;;;;;5.00;4.20;;;;;;;13.61;100.00;98015.53;5006188;28;20223;-79
2023/04/29 06:37:59;;;;;;;5.03;4.07;;;;;;;13.61;100.00;98020.00;5006644;28;20730;-80
2023/04/29 06:40:26;;;;;;;4.40;4.00;;;;;;;13.53;100.00;98031.28;4995663;28;20244;-81
2023/04/29 06:42:52;;;;;;;6.60;4.40;;;;;;;13.45;100.00;98033.69;4990451;28;20210;-80
2023/04/29 06:45:19;;;;;;;4.97;4.47;;;;;;;13.39;100.00;98031.53;4990475;28;20242;-81
2023/04/29 06:47:46;;;;;;;5.07;4.57;;;;;;;13.33;100.00;98041.84;4990581;28;20300;-80
2023/04/29 06:50:14;;;;;;;5.30;4.83;;;;;;;13.39;100.00;98038.69;4990300;28;20219;-81
2023/04/29 06:52:40;;;;;;;4.90;4.50;;;;;;;13.55;100.00;98042.59;4990564;28;20213;-82
2023/04/29 06:55:07;;;;;;;4.90;4.40;;;;;;;13.66;100.00;98039.06;4990276;28;20242;-81
2023/04/29 06:57:35;;;;;;;4.57;4.00;;;;;;;13.58;100.00;98045.00;4990310;28;20220;-82
2023/04/29 07:00:03;;;;;;;5.90;3.83;;;;;;;13.54;100.00;98043.59;4990069;28;20249;-78
2023/04/29 07:02:29;;;;;;;4.30;3.90;;;;;;;13.64;100.00;98046.31;4990551;28;20559;-78
2023/04/29 07:04:56;;;;;;;4.00;3.50;;;;;;;13.70;100.00;98045.81;4990096;28;20735;-78
2023/04/29 07:07:24;;;;;;;3.80;3.33;;;;;;;13.89;100.00;98052.13;4990202;28;20244;-78
2023/04/29 07:09:52;;;;;;;5.00;4.30;;;;;;;14.13;100.00;98057.19;4988253;28;21291;-80
2023/04/29 07:12:18;;;;;;;4.60;4.00;;;;;;;14.33;100.00;98057.22;4988753;28;20268;-82
2023/04/29 07:14:45;;;;;;;3.63;3.33;;;;;;;14.49;100.00;98062.06;4989344;28;20238;-83
2023/04/29 07:17:11;;;;;;;4.93;3.60;;;;;;;14.62;100.00;98057.38;4990409;28;20207;-90
2023/04/29 07:19:38;;;;;;;3.50;2.90;;;;;;;14.58;100.00;98066.56;4989732;28;20212;-81
2023/04/29 07:22:04;;;;;;;3.77;3.40;;;;;;;14.61;100.00;98061.84;4990050;28;20222;-81
2023/04/29 07:24:32;;;;;;;3.80;3.10;;;;;;;14.73;100.00;98075.91;4989807;28;20236;-82
2023/04/29 07:26:59;;;;;;;4.37;3.03;;;;;;;14.84;100.00;98075.81;4989685;28;20239;-81
2023/04/29 07:29:25;;;;;;;5.13;3.40;;;;;;;14.80;100.00;98071.72;4989600;28;20219;-79
2023/04/29 07:31:52;;;;;;;3.70;3.40;;;;;;;14.77;100.00;98067.53;4990007;28;20585;-80
2023/04/29 07:34:18;;;;;;;3.50;3.20;;;;;;;14.85;100.00;98074.84;4989843;28;20239;-80
2023/04/29 07:36:45;;;;;;;4.20;3.57;;;;;;;14.79;100.00;98076.19;4989696;28;20554;-79
2023/04/29 07:39:14;;;;;;;3.60;3.10;;;;;;;14.53;100.00;98068.78;4989240;28;20210;-80
2023/04/29 07:41:42;;;;;;;3.13;2.83;;;;;;;14.36;100.00;98072.88;4989803;28;20214;-81
2023/04/29 07:44:08;;;;;;;3.80;2.93;;;;;;;14.37;100.00;98082.53;4989439;28;20238;-81
2023/04/29 07:46:35;;;;;;;3.40;3.10;;;;;;;14.26;100.00;98081.78;4989639;28;20251;-82
2023/04/29 07:49:01;;;;;;;3.00;2.77;;;;;;;14.24;100.00;98084.56;4989566;28;20211;-79
2023/04/29 07:51:28;;;;;;;4.15;3.75;;;;;;;14.29;100.00;98086.84;4988540;28;20815;-76
2023/04/29 07:53:55;;;;;;;3.10;2.90;;;;;;;14.23;100.00;98082.88;4988931;28;20394;-76
2023/04/29 07:56:22;;;;;;;3.70;3.27;;;;;;;14.28;100.00;98093.13;4989153;28;20202;-77
2023/04/29 07:58:49;;;;;;;3.33;3.03;;;;;;;14.18;100.00;98085.06;4989514;28;20589;-76
2023/04/29 08:01:16;;;;;;;3.27;2.93;;;;;;;14.16;100.00;98078.16;4989244;28;20214;-84
2023/04/29 08:03:43;;;;;;;4.37;3.90;;;;;;;14.09;100.00;98091.16;4989168;28;20262;-77
2023/04/29 08:06:09;;;;;;;5.10;2.87;;;;;;;14.03;100.00;98102.28;4989315;28;20230;-77
2023/04/29 08:08:36;;;;;;;4.53;2.83;;;;;;;14.05;100.00;98104.84;4989240;28;20215;-78
2023/04/29 08:11:03;;;;;;;3.27;2.83;;;;;;;13.97;100.00;98101.94;4989242;28;20586;-78
2023/04/29 08:13:29;;;;;;;2.60;2.40;;;;;;;13.71;100.00;98105.94;4989104;28;20302;-78
2023/04/29 08:15:57;;;;;;;3.77;2.90;;;;;;;13.68;100.00;98100.88;4989215;28;20530;-76
2023/04/29 08:18:24;;;;;;;2.83;2.63;;;;;;;13.73;100.00;98109.28;4989111;28;20214;-76
2023/04/29 08:20:50;;;;;;;3.43;2.60;;;;;;;13.64;100.00;98110.06;4988602;28;20216;-76
2023/04/29 08:23:17;;;;;;;2.87;2.60;;;;;;;13.80;100.00;98110.47;4988459;28;20218;-76
2023/04/29 08:25:44;;;;;;;3.17;2.87;;;;;;;13.96;100.00;98108.25;4988958;28;20210;-77
2023/04/29 08:28:10;;;;;;;3.07;2.60;;;;;;;14.08;100.00;98104.56;4989044;28;20676;-78
2023/04/29 08:30:40;;;;;;;2.60;2.40;;;;;;;14.03;100.00;98091.66;4988831;28;20213;-77
2023/04/29 08:33:08;;;;;;;2.53;2.33;;;;;;;14.28;100.00;98095.78;4988868;28;20218;-76
2023/04/29 08:35:36;;;;;;;2.60;2.40;;;;;;;14.32;100.00;98098.06;4988511;28;20610;-77
2023/04/29 08:38:03;;;;;;;2.73;2.53;;;;;;;14.54;100.00;98113.03;4988869;28;20207;-77
2023/04/29 08:40:30;;;;;;;3.00;2.70;;;;;;;14.62;100.00;98095.47;4988848;28;20568;-74
2023/04/29 08:42:58;;;;;;;2.70;2.50;;;;;;;14.98;100.00;98092.25;4989003;28;20226;-75
2023/04/29 08:45:27;;;;;;;3.10;2.80;;;;;;;15.22;100.00;98082.09;4988385;23;20239;-76
2023/04/29 08:47:55;;;;;;;3.03;2.63;;;;;;;15.20;100.00;98067.25;4969379;28;20238;-81
2023/04/29 08:50:24;;;;;;;3.30;2.60;;;;;;;15.06;100.00;98075.59;4969293;28;20212;-86
2023/04/29 08:52:51;;;;;;;3.80;2.80;;;;;;;15.06;100.00;98078.28;4969588;28;20211;-78
2023/04/29 08:55:18;;;;;;;2.97;2.67;;;;;;;15.24;100.00;98076.66;4969245;28;20305;-76
2023/04/29 08:57:46;;;;;;;3.20;2.75;;;;;;;15.33;100.00;98075.88;4971099;28;20450;-77
2023/04/29 09:00:14;;;;;;;4.03;2.83;;;;;;;15.29;99.25;98077.94;4972427;28;20217;-76
2023/04/29 09:02:47;;;;;;;2.83;2.63;;;;;;;15.45;100.00;98096.91;4972428;28;20214;-76
2023/04/29 09:05:13;;;;;;;2.70;2.50;;;;;;;15.61;99.54;98080.41;4969961;28;20259;-77
2023/04/29 09:07:42;;;;;;;3.67;3.00;;;;;;;15.58;98.20;98075.38;4970074;28;20244;-76
2023/04/29 09:10:10;;;;;;;4.00;3.60;;;;;;;15.54;98.37;98081.94;4969789;28;20310;-76
2023/04/29 09:12:37;;;;;;;3.97;3.57;;;;;;;15.48;98.14;98079.81;4971440;28;20262;-76
2023/04/29 09:15:04;;;;;;;4.33;3.87;;;;;;;15.46;95.69;98076.47;4971961;28;20601;-77
2023/04/29 09:17:41;;;;;;;4.73;4.33;;;;;;;15.45;97.15;98117.41;4971248;28;20362;-77
2023/04/29 09:20:27;;;;;;;5.00;4.50;;;;;;;15.54;96.94;98119.22;4969254;28;20458;-77
2023/04/29 09:22:57;;;;;;;4.60;4.20;;;;;;;15.69;96.82;98120.50;4969529;28;20217;-77
2023/04/29 09:25:25;;;;;;;4.30;3.90;;;;;;;15.59;96.13;98120.50;4970407;28;20266;-79
2023/04/29 09:27:51;;;;;;;4.83;4.10;;;;;;;15.60;95.77;98121.34;4972177;28;20712;-77
2023/04/29 09:30:18;;;;;;;3.73;3.43;;;;;;;15.70;94.87;98127.56;4971238;28;20217;-77
2023/04/29 09:32:46;;;;;;;3.80;3.50;;;;;;;15.73;96.44;98125.44;4969316;28;20229;-77
2023/04/29 09:35:24;;;;;;;4.00;3.60;;;;;;;15.90;95.65;98129.25;4969564;28;20232;-78
2023/04/29 09:37:52;;;;;;;5.03;3.73;;;;;;;15.54;90.50;98106.75;4969013;28;20211;-78
2023/04/29 09:40:30;;;;;;;4.00;3.60;;;;;;;15.57;92.95;98116.31;4971444;28;20659;-77
2023/04/29 09:42:57;;;;;;;3.83;3.43;;;;;;;15.52;93.30;98124.69;4972350;28;20592;-79
2023/04/29 09:45:37;;;;;;;5.43;3.83;;;;;;;15.43;92.33;98135.31;4969683;28;20253;-79
2023/04/29 09:48:05;;;;;;;4.20;3.80;;;;;;;15.56;95.64;98136.75;4969714;28;20236;-83
2023/04/29 09:50:31;;;;;;;3.90;3.57;;;;;;;15.70;94.71;98135.53;4969112;28;20254;-81
2023/04/29 09:52:58;;;;;;;3.90;3.50;;;;;;;15.81;93.94;98144.25;4970980;28;20218;-80
2023/04/29 09:55:25;;;;;;;4.07;3.70;;;;;;;15.83;90.69;98130.78;4972375;28;20238;-77
2023/04/29 09:57:53;;;;;;;3.33;3.03;;;;;;;15.90;91.43;98140.78;4971014;28;20289;-77
2023/04/29 10:00:19;;;;;;;3.83;3.27;;;;;;;16.04;91.33;98133.16;4969305;28;20603;-79
2023/04/29 10:02:48;;;;;;;3.40;3.10;;;;;;;16.25;88.95;98123.22;4969486;28;20217;-78
2023/04/29 10:05:15;;;;;;;3.33;3.03;;;;;;;16.20;88.70;98127.28;4969524;28;20327;-78
2023/04/29 10:07:43;;;;;;;3.33;3.03;;;;;;;16.29;87.36;98115.78;4970979;28;20632;-80
2023/04/29 10:10:11;;;;;;;3.63;3.30;;;;;;;16.14;85.90;98131.38;4970505;28;20213;-78
2023/04/29 10:12:39;;;;;;;3.97;3.43;;;;;;;16.19;84.96;98122.94;4968853;28;20209;-89
2023/04/29 10:15:20;;;;;;;3.90;3.30;;;;;;;16.16;84.25;98124.06;4970024;28;20623;-89
2023/04/29 10:17:52;;;;;;;4.00;2.80;;;;;;;16.23;85.70;98133.22;4969679;28;20220;-79
2023/04/29 10:20:23;;;;;;;3.70;3.40;;;;;;;16.21;82.36;98113.81;4966423;28;20679;-85
2023/04/29 10:22:51;;;;;;;4.50;2.97;;;;;;;16.18;83.16;98118.59;4981419;28;20640;-78
2023/04/29 10:25:20;;;;;;;4.40;3.00;;;;;;;16.04;82.80;98111.84;4980294;28;20233;-77
2023/04/29 10:27:47;;;;;;;3.60;3.27;;;;;;;16.10;82.49;98111.28;4973384;28;20237;-77
2023/04/29 10:30:20;;;;;;;3.27;2.97;;;;;;;16.22;82.80;98104.81;4979954;28;20282;-77
2023/04/29 10:32:48;;;;;;;3.20;2.90;;;;;;;16.48;82.76;98113.13;4977600;28;20710;-78
2023/04/29 10:35:17;;;;;;;3.77;3.40;;;;;;;16.62;82.18;98108.19;4980715;28;20229;-78
2023/04/29 10:37:46;;;;;;;3.93;3.40;;;;;;;16.70;83.00;98113.63;4979041;28;20302;-78
2023/04/29 10:40:17;;;;;;;4.27;3.63;;;;;;;16.87;80.36;98096.88;4951241;28;20219;-78
2023/04/29 10:42:46;;;;;;;3.20;2.90;;;;;;;17.02;79.20;98097.25;4953356;28;20571;-78
2023/04/29 10:45:21;;;;;;;3.10;2.80;;;;;;;17.13;77.53;98081.03;4969667;28;20233;-79
2023/04/29 10:48:11;;;;;;;3.10;2.80;;;;;;;17.28;77.22;98082.22;4976549;28;20240;-86
2023/04/29 10:51:01;;;;;;;2.50;2.30;;;;;;;17.28;71.54;98052.81;4975281;28;20664;-88
2023/04/29 10:53:28;;;;;;;5.67;2.23;;;;;;;17.16;70.51;98051.34;4952045;29;20215;-84
2023/04/29 10:55:57;;;;;;;4.60;2.63;;;;;;;17.40;74.20;98073.03;4951642;28;20834;-84
2023/04/29 10:58:38;;;;;;;2.67;2.47;;;;;;;17.51;70.97;98059.47;4951690;28;20207;-84
2023/04/29 11:01:09;;;;;;;3.20;2.90;;;;;;;17.23;70.60;98063.97;4951092;28;20222;-84
2023/04/29 11:03:53;;;;;;;3.60;3.00;;;;;;;16.98;72.44;98061.13;4951782;28;20292;-85
2023/04/29 11:06:22;;;;;;;3.53;3.23;;;;;;;16.78;74.40;98076.41;4954097;28;20212;-85
2023/04/29 11:08:59;;;;;;;4.73;3.17;;;;;;;16.60;76.41;98083.47;4979167;28;20627;-87
2023/04/29 11:11:26;;;;;;;4.47;3.22;;;;;;;16.39;76.61;98080.13;4979905;28;20449;-81
2023/04/29 11:13:53;;;;;;;3.40;3.10;;;;;;;16.37;75.19;98076.75;4979720;28;20210;-85
2023/04/29 11:16:27;;;;;;;3.17;2.40;;;;;;;16.59;74.80;98080.94;4981825;28;20221;-87
2023/04/29 11:19:08;;;;;;;3.07;2.77;;;;;;;16.49;71.81;98059.63;4978980;28;20563;-91
2023/04/29 11:21:36;;;;;;;3.57;2.60;;;;;;;16.71;73.50;98080.63;4980760;28;20263;-91
2023/04/29 11:24:05;;;;;;;3.63;2.70;;;;;;;16.80;71.58;98057.56;4982682;28;20315;-90
2023/04/29 11:26:31;;;;;;;4.03;3.00;;;;;;;16.81;72.39;98080.59;4974929;28;20213;-86
2023/04/29 11:29:00;;;;;;;5.63;4.30;;;;;;;16.53;74.73;98086.84;4978387;28;20210;-91
2023/04/29 11:31:31;;;;;;;5.40;4.00;;;;;;;16.53;77.57;98098.34;4978232;28;20210;-91